Time;durP1;ratioP1;P1;durP2;ratioP2;P2;SDS_P1;SDS_P2;PMS_P1;PMS_P2;Temp;Humidity;BMP_temperature;BMP_pressure;BME280_temperature;BME280_humidity;BME280_pressure;Samples;Min_cycle;Max_cycle;Signal;HPM_P1;HPM_P2
2023/06/18 00:00:35;;;;;;;8.33;7.53;;;;;;;;;;4930110;29;20211;-76
2023/06/18 00:03:01;;;;;;;8.90;7.47;;;;;;;;;;4929639;29;20817;-75
2023/06/18 00:05:27;;;;;;;8.70;7.77;;;;;;;;;;4922020;29;20187;-76
2023/06/18 00:07:53;;;;;;;8.00;7.20;;;;;;;;;;4934762;29;20206;-76
2023/06/18 00:10:20;;;;;;;8.60;6.73;;;;;;;;;;4937325;29;20197;-75
2023/06/18 00:12:46;;;;;;;7.80;6.53;;;;;;;;;;4934566;29;20273;-76
2023/06/18 00:15:12;;;;;;;8.37;6.07;;;;;;;;;;4930906;29;20233;-75
2023/06/18 00:17:38;;;;;;;6.80;6.20;;;;;;;;;;4926651;29;20728;-76
2023/06/18 00:20:06;;;;;;;8.10;7.30;;;;;;;;;;4933489;29;20281;-76
2023/06/18 00:22:37;;;;;;;9.47;7.57;;;;;;;;;;4933120;29;20217;-75
2023/06/18 00:25:07;;;;;;;7.83;6.70;;;;;;;;;;4931920;29;20726;-75
2023/06/18 00:27:33;;;;;;;7.87;7.10;;;;;;;;;;4930819;29;20257;-75
2023/06/18 00:30:00;;;;;;;8.10;7.00;;;;;;;;;;4932250;29;20182;-75
2023/06/18 00:32:28;;;;;;;9.90;7.23;;;;;;;;;;4932547;29;20238;-76
2023/06/18 00:34:55;;;;;;;7.40;6.60;;;;;;;;;;4932960;29;20190;-75
2023/06/18 00:37:21;;;;;;;7.20;6.60;;;;;;;;;;4926721;29;20182;-76
2023/06/18 00:39:48;;;;;;;8.03;7.23;;;;;;;;;;4928756;29;20662;-75
2023/06/18 00:42:15;;;;;;;7.97;6.90;;;;;;;;;;4930240;29;20218;-75
2023/06/18 00:44:41;;;;;;;7.30;6.67;;;;;;;;;;4930545;29;20190;-75
2023/06/18 00:47:12;;;;;;;7.60;6.80;;;;;;;;;;4933460;29;20193;-75
2023/06/18 00:49:40;;;;;;;8.23;7.03;;;;;;;;;;4928133;29;20193;-76
2023/06/18 00:52:08;;;;;;;9.43;7.17;;;;;;;;;;4933964;29;20198;-75
2023/06/18 00:54:35;;;;;;;7.47;6.70;;;;;;;;;;4929433;29;20193;-75
2023/06/18 00:57:03;;;;;;;7.07;6.37;;;;;;;;;;4924377;29;20693;-75
2023/06/18 00:59:30;;;;;;;6.90;6.20;;;;;;;;;;4932081;29;20185;-75
2023/06/18 01:01:56;;;;;;;8.77;6.80;;;;;;;;;;4933583;29;20229;-75
2023/06/18 01:04:26;;;;;;;7.73;6.33;;;;;;;;;;4930299;29;20213;-75
2023/06/18 01:06:57;;;;;;;8.13;7.30;;;;;;;;;;4916672;29;20186;-75
2023/06/18 01:09:24;;;;;;;7.83;6.87;;;;;;;;;;4932447;29;20190;-75
2023/06/18 01:11:53;;;;;;;7.13;6.53;;;;;;;;;;4937820;29;20678;-77
2023/06/18 01:14:25;;;;;;;7.80;7.10;;;;;;;;;;4929050;29;20182;-75
2023/06/18 01:16:53;;;;;;;10.17;8.00;;;;;;;;;;4932728;29;20186;-75
2023/06/18 01:19:27;;;;;;;8.20;7.40;;;;;;;;;;4928356;29;20204;-77
2023/06/18 01:21:57;;;;;;;7.80;7.10;;;;;;;;;;4916641;29;20262;-75
2023/06/18 01:24:27;;;;;;;10.83;7.20;;;;;;;;;;4930693;29;20190;-76
2023/06/18 01:26:56;;;;;;;8.27;7.33;;;;;;;;;;4932959;29;20174;-76
2023/06/18 01:29:26;;;;;;;7.90;7.17;;;;;;;;;;4907168;29;20193;-75
2023/06/18 01:31:53;;;;;;;8.37;7.47;;;;;;;;;;4932523;29;20217;-75
2023/06/18 01:34:20;;;;;;;9.73;7.47;;;;;;;;;;4932146;29;20252;-76
2023/06/18 01:36:49;;;;;;;8.37;7.57;;;;;;;;;;4931659;29;20186;-75
2023/06/18 01:39:35;;;;;;;7.80;6.90;;;;;;;;;;4926437;29;20198;-75
2023/06/18 01:42:08;;;;;;;8.00;6.77;;;;;;;;;;4922276;29;20264;-76
2023/06/18 01:44:35;;;;;;;7.83;6.83;;;;;;;;;;4932775;29;20601;-75
2023/06/18 01:47:02;;;;;;;8.10;7.40;;;;;;;;;;4924350;29;20496;-76
2023/06/18 01:49:30;;;;;;;8.13;7.43;;;;;;;;;;4925693;29;20262;-75
2023/06/18 01:51:57;;;;;;;9.40;7.67;;;;;;;;;;4929124;29;20615;-75
2023/06/18 01:54:23;;;;;;;11.63;8.10;;;;;;;;;;4935116;29;20204;-75
2023/06/18 01:56:51;;;;;;;11.40;8.80;;;;;;;;;;4924742;29;20222;-75
2023/06/18 01:59:17;;;;;;;10.23;9.23;;;;;;;;;;4916753;29;20197;-75
2023/06/18 02:01:43;;;;;;;12.90;9.30;;;;;;;;;;4947454;29;20221;-75
2023/06/18 02:04:10;;;;;;;10.30;9.30;;;;;;;;;;4933180;29;20692;-76
2023/06/18 02:06:36;;;;;;;9.93;9.03;;;;;;;;;;4934956;29;20216;-75
2023/06/18 02:09:04;;;;;;;9.30;8.30;;;;;;;;;;4934392;29;20278;-75
2023/06/18 02:11:30;;;;;;;10.17;9.17;;;;;;;;;;4926896;29;20210;-75
2023/06/18 02:13:56;;;;;;;9.93;9.00;;;;;;;;;;4932510;29;20236;-76
2023/06/18 02:16:23;;;;;;;11.23;8.67;;;;;;;;;;4932999;29;20197;-75
2023/06/18 02:18:49;;;;;;;10.60;9.50;;;;;;;;;;4941046;29;20189;-75
2023/06/18 02:21:16;;;;;;;9.70;8.70;;;;;;;;;;4942856;29;20204;-75
2023/06/18 02:23:42;;;;;;;10.50;9.50;;;;;;;;;;4932122;28;20183;-75
2023/06/18 02:26:08;;;;;;;11.93;10.07;;;;;;;;;;4935138;29;20186;-75
2023/06/18 02:28:35;;;;;;;10.60;9.30;;;;;;;;;;4933117;29;20183;-75
2023/06/18 02:31:01;;;;;;;9.83;8.60;;;;;;;;;;4916571;29;20201;-77
2023/06/18 02:33:29;;;;;;;9.37;8.37;;;;;;;;;;4925008;29;20214;-75
2023/06/18 02:35:56;;;;;;;10.57;9.47;;;;;;;;;;4929432;29;20182;-75
2023/06/18 02:38:22;;;;;;;10.67;9.67;;;;;;;;;;4935757;29;20549;-76
2023/06/18 02:40:48;;;;;;;13.43;11.00;;;;;;;;;;4934367;29;20737;-75
2023/06/18 02:43:14;;;;;;;11.40;10.37;;;;;;;;;;4933841;29;20209;-75
2023/06/18 02:45:41;;;;;;;10.60;9.60;;;;;;;;;;4930151;29;20185;-75
2023/06/18 02:48:07;;;;;;;11.23;10.13;;;;;;;;;;4934267;29;20633;-75
2023/06/18 02:50:34;;;;;;;10.07;9.03;;;;;;;;;;4932722;29;20201;-76
2023/06/18 02:53:00;;;;;;;9.70;8.80;;;;;;;;;;4918429;29;20623;-75
2023/06/18 02:55:26;;;;;;;9.40;8.47;;;;;;;;;;4916865;29;20599;-74
2023/06/18 02:57:53;;;;;;;10.57;8.03;;;;;;;;;;4930982;29;20273;-75
2023/06/18 03:00:19;;;;;;;9.50;7.77;;;;;;;;;;4933801;29;20196;-75
2023/06/18 03:02:46;;;;;;;8.27;7.47;;;;;;;;;;4932804;29;20218;-75
2023/06/18 03:05:19;;;;;;;9.77;8.83;;;;;;;;;;4935868;29;20197;-75
2023/06/18 03:07:45;;;;;;;9.70;8.70;;;;;;;;;;4930713;29;20690;-75
2023/06/18 03:10:12;;;;;;;11.10;9.73;;;;;;;;;;4915873;29;20256;-75
2023/06/18 03:12:40;;;;;;;9.90;9.00;;;;;;;;;;4919891;29;20610;-76
2023/06/18 03:15:20;;;;;;;9.17;8.27;;;;;;;;;;4931064;29;20269;-75
2023/06/18 03:17:46;;;;;;;10.67;7.93;;;;;;;;;;4934154;29;20326;-75
2023/06/18 03:20:13;;;;;;;9.87;7.97;;;;;;;;;;4931683;29;20194;-75
2023/06/18 03:22:39;;;;;;;9.73;8.77;;;;;;;;;;4934521;29;20689;-75
2023/06/18 03:25:06;;;;;;;8.50;7.57;;;;;;;;;;4913356;29;20532;-75
2023/06/18 03:27:32;;;;;;;8.97;7.57;;;;;;;;;;4934903;29;20269;-75
2023/06/18 03:29:58;;;;;;;9.13;7.60;;;;;;;;;;4929111;29;20276;-75
2023/06/18 03:32:27;;;;;;;11.23;8.43;;;;;;;;;;4918473;29;20300;-75
2023/06/18 03:34:54;;;;;;;10.87;8.87;;;;;;;;;;4934676;29;20224;-75
2023/06/18 03:37:22;;;;;;;9.57;7.93;;;;;;;;;;4930239;29;20206;-76
2023/06/18 03:39:48;;;;;;;9.90;7.73;;;;;;;;;;4931772;29;20189;-75
2023/06/18 03:42:14;;;;;;;8.37;7.50;;;;;;;;;;4909924;29;20242;-75
2023/06/18 03:44:40;;;;;;;9.83;8.17;;;;;;;;;;4936136;29;20265;-75
2023/06/18 03:47:07;;;;;;;10.00;8.17;;;;;;;;;;4925231;29;20190;-74
2023/06/18 03:49:34;;;;;;;8.30;7.50;;;;;;;;;;4916416;29;20531;-75
2023/06/18 03:52:00;;;;;;;9.70;7.63;;;;;;;;;;4915381;29;20206;-75
2023/06/18 03:54:26;;;;;;;8.03;7.23;;;;;;;;;;4925111;29;20249;-77
2023/06/18 03:56:55;;;;;;;8.60;7.80;;;;;;;;;;4934094;29;20669;-75
2023/06/18 03:59:21;;;;;;;9.37;7.63;;;;;;;;;;4932932;29;20186;-75
2023/06/18 04:01:47;;;;;;;8.23;7.37;;;;;;;;;;4933208;29;20218;-75
2023/06/18 04:04:14;;;;;;;8.03;7.23;;;;;;;;;;4916439;29;20207;-75
2023/06/18 04:06:40;;;;;;;8.67;7.87;;;;;;;;;;4926176;29;20233;-76
2023/06/18 04:09:06;;;;;;;8.03;7.27;;;;;;;;;;4933600;29;20194;-76
2023/06/18 04:11:33;;;;;;;9.10;7.00;;;;;;;;;;4897660;29;20185;-75
2023/06/18 04:13:59;;;;;;;7.83;7.13;;;;;;;;;;4927961;29;20194;-75
2023/06/18 04:16:25;;;;;;;9.50;7.90;;;;;;;;;;4914060;29;20261;-75
2023/06/18 04:18:53;;;;;;;8.57;7.53;;;;;;;;;;4921133;29;20189;-76
2023/06/18 04:21:19;;;;;;;8.23;7.53;;;;;;;;;;4892710;29;20252;-75
2023/06/18 04:23:45;;;;;;;8.73;7.57;;;;;;;;;;4896467;29;20190;-75
2023/06/18 04:26:12;;;;;;;7.57;6.87;;;;;;;;;;4946767;29;20205;-75
2023/06/18 04:28:39;;;;;;;7.80;7.00;;;;;;;;;;4933039;29;20193;-75
2023/06/18 04:31:05;;;;;;;9.17;8.27;;;;;;;;;;4927446;29;20209;-75
2023/06/18 04:33:32;;;;;;;9.57;7.27;;;;;;;;;;4931096;29;20705;-75
2023/06/18 04:35:58;;;;;;;7.50;6.80;;;;;;;;;;4930047;29;20201;-75
2023/06/18 04:38:24;;;;;;;7.53;6.70;;;;;;;;;;4915634;29;20190;-75
2023/06/18 04:40:51;;;;;;;7.40;6.70;;;;;;;;;;4920074;29;20206;-75
2023/06/18 04:43:20;;;;;;;10.67;7.17;;;;;;;;;;4932958;29;20273;-74
2023/06/18 04:45:47;;;;;;;8.37;7.20;;;;;;;;;;4930469;29;20319;-75
2023/06/18 04:48:18;;;;;;;9.67;7.93;;;;;;;;;;4942529;28;20186;-75
2023/06/18 04:50:44;;;;;;;8.70;7.80;;;;;;;;;;4929420;29;20213;-75
2023/06/18 04:53:10;;;;;;;8.50;6.90;;;;;;;;;;4913965;29;20721;-75
2023/06/18 04:55:37;;;;;;;8.20;7.40;;;;;;;;;;4929977;29;20213;-76
2023/06/18 04:58:04;;;;;;;8.33;7.60;;;;;;;;;;4933520;29;20277;-75
2023/06/18 05:00:33;;;;;;;9.27;7.03;;;;;;;;;;4917364;29;20761;-75
2023/06/18 05:03:00;;;;;;;8.43;7.63;;;;;;;;;;4933037;29;20269;-75
2023/06/18 05:05:27;;;;;;;8.90;8.00;;;;;;;;;;4925689;29;20682;-75
2023/06/18 05:07:55;;;;;;;8.17;7.43;;;;;;;;;;4925986;29;20673;-76
2023/06/18 05:10:22;;;;;;;8.40;7.60;;;;;;;;;;4926851;29;20202;-75
2023/06/18 05:12:49;;;;;;;8.00;7.20;;;;;;;;;;4926152;29;20225;-76
2023/06/18 05:15:15;;;;;;;9.27;8.30;;;;;;;;;;4927024;29;20693;-75
2023/06/18 05:17:42;;;;;;;9.43;8.53;;;;;;;;;;4929320;29;20465;-75
2023/06/18 05:20:12;;;;;;;10.37;9.07;;;;;;;;;;4929228;29;20675;-76
2023/06/18 05:22:40;;;;;;;10.07;9.10;;;;;;;;;;4945246;29;20218;-75
2023/06/18 05:25:07;;;;;;;8.93;8.03;;;;;;;;;;4939036;29;20190;-75
2023/06/18 05:27:34;;;;;;;10.23;8.17;;;;;;;;;;4930335;29;20594;-75
2023/06/18 05:30:01;;;;;;;9.20;8.30;;;;;;;;;;4915358;29;20602;-75
2023/06/18 05:32:29;;;;;;;7.70;7.10;;;;;;;;;;4917191;29;20218;-75
2023/06/18 05:34:56;;;;;;;9.00;7.57;;;;;;;;;;4931667;29;20215;-75
2023/06/18 05:37:24;;;;;;;8.60;7.80;;;;;;;;;;4921296;29;20671;-76
2023/06/18 05:39:51;;;;;;;8.00;7.30;;;;;;;;;;4943514;29;20187;-75
2023/06/18 05:42:18;;;;;;;8.93;8.00;;;;;;;;;;4945434;29;20235;-76
2023/06/18 05:44:45;;;;;;;8.77;7.87;;;;;;;;;;4931097;29;20190;-76
2023/06/18 05:47:11;;;;;;;7.87;7.07;;;;;;;;;;4931364;29;20588;-76
2023/06/18 05:49:37;;;;;;;8.10;7.30;;;;;;;;;;4931805;29;20178;-76
2023/06/18 05:52:05;;;;;;;9.13;8.00;;;;;;;;;;4904357;29;20217;-75
2023/06/18 05:54:31;;;;;;;8.53;7.73;;;;;;;;;;4928131;29;20284;-77
2023/06/18 05:56:58;;;;;;;10.13;8.67;;;;;;;;;;4932563;29;20585;-76
2023/06/18 05:59:24;;;;;;;9.93;8.93;;;;;;;;;;4927990;29;20213;-76
2023/06/18 06:01:56;;;;;;;9.77;8.77;;;;;;;;;;4928269;29;20286;-75
2023/06/18 06:04:23;;;;;;;10.47;8.23;;;;;;;;;;4921757;29;20189;-75
2023/06/18 06:06:50;;;;;;;9.07;8.17;;;;;;;;;;4931407;29;20181;-75
2023/06/18 06:09:16;;;;;;;9.00;7.70;;;;;;;;;;4928850;29;20181;-76
2023/06/18 06:11:43;;;;;;;8.73;7.87;;;;;;;;;;4917035;29;20218;-76
2023/06/18 06:14:12;;;;;;;9.67;7.90;;;;;;;;;;4932366;29;20192;-75
2023/06/18 06:16:39;;;;;;;9.63;8.83;;;;;;;;;;4914903;29;20543;-75
2023/06/18 06:19:05;;;;;;;9.50;8.20;;;;;;;;;;4924761;29;20677;-75
2023/06/18 06:21:33;;;;;;;9.87;8.73;;;;;;;;;;4932417;29;20221;-76
2023/06/18 06:24:00;;;;;;;9.47;8.47;;;;;;;;;;4933050;29;20197;-75
2023/06/18 06:26:29;;;;;;;8.83;7.70;;;;;;;;;;4934086;29;20194;-75
2023/06/18 06:28:55;;;;;;;9.07;8.17;;;;;;;;;;4929682;29;20203;-76
2023/06/18 06:31:21;;;;;;;8.57;7.77;;;;;;;;;;4945830;28;20698;-76
2023/06/18 06:33:48;;;;;;;9.27;8.17;;;;;;;;;;4935156;29;20272;-75
2023/06/18 06:36:14;;;;;;;8.57;7.77;;;;;;;;;;4929005;29;20194;-75
2023/06/18 06:38:42;;;;;;;9.20;8.17;;;;;;;;;;4926090;29;20293;-75
2023/06/18 06:41:08;;;;;;;8.03;7.27;;;;;;;;;;4929550;29;20579;-75
2023/06/18 06:43:34;;;;;;;8.27;7.47;;;;;;;;;;4931400;29;20209;-75
2023/06/18 06:46:19;;;;;;;8.13;7.33;;;;;;;;;;4934783;29;20184;-76
2023/06/18 06:49:07;;;;;;;9.67;8.57;;;;;;;;;;4925687;29;20183;-76
2023/06/18 06:51:56;;;;;;;9.03;8.13;;;;;;;;;;4919317;29;20217;-76
2023/06/18 06:54:22;;;;;;;8.90;8.00;;;;;;;;;;4929142;29;20199;-76
2023/06/18 06:56:49;;;;;;;9.10;8.30;;;;;;;;;;4949609;29;20197;-76
2023/06/18 06:59:15;;;;;;;9.43;8.23;;;;;;;;;;4930475;29;20600;-77
2023/06/18 07:01:43;;;;;;;9.80;8.80;;;;;;;;;;4935978;29;20607;-76
2023/06/18 07:04:10;;;;;;;9.07;8.13;;;;;;;;;;4938224;29;20189;-75
2023/06/18 07:06:39;;;;;;;9.97;8.90;;;;;;;;;;4928043;28;20650;-75
2023/06/18 07:09:06;;;;;;;10.37;8.40;;;;;;;;;;4925759;29;20284;-74
2023/06/18 07:11:33;;;;;;;8.73;8.03;;;;;;;;;;4923127;29;20292;-76
2023/06/18 07:14:00;;;;;;;9.73;8.73;;;;;;;;;;4929762;29;20277;-78
2023/06/18 07:16:26;;;;;;;12.80;9.47;;;;;;;;;;4926067;29;20202;-75
2023/06/18 07:18:52;;;;;;;11.30;9.10;;;;;;;;;;4928216;29;20197;-76
2023/06/18 07:21:19;;;;;;;10.33;9.30;;;;;;;;;;4925017;29;20701;-71
2023/06/18 07:23:45;;;;;;;9.53;8.63;;;;;;;;;;4913420;29;20276;-74
2023/06/18 07:26:11;;;;;;;11.27;10.13;;;;;;;;;;4930608;29;20185;-76
2023/06/18 07:28:37;;;;;;;10.33;9.43;;;;;;;;;;4925445;29;20188;-74
2023/06/18 07:31:04;;;;;;;11.17;10.07;;;;;;;;;;4926692;29;20217;-73
2023/06/18 07:33:31;;;;;;;10.00;9.10;;;;;;;;;;4922589;29;20213;-75
2023/06/18 07:35:58;;;;;;;10.47;9.40;;;;;;;;;;4922069;29;20222;-72
2023/06/18 07:38:24;;;;;;;10.20;9.30;;;;;;;;;;4924365;29;20185;-74
2023/06/18 07:40:50;;;;;;;13.10;9.20;;;;;;;;;;4921770;29;20186;-75
2023/06/18 07:43:16;;;;;;;8.60;7.80;;;;;;;;;;4928079;29;20241;-74
2023/06/18 07:45:42;;;;;;;10.30;9.30;;;;;;;;;;4924087;29;20182;-74
2023/06/18 07:48:09;;;;;;;10.63;9.63;;;;;;;;;;4928372;29;20706;-74
2023/06/18 07:50:35;;;;;;;11.10;9.87;;;;;;;;;;4929795;29;20189;-72
2023/06/18 07:53:02;;;;;;;10.30;9.30;;;;;;;;;;4924371;29;20229;-74
2023/06/18 07:55:28;;;;;;;8.77;8.07;;;;;;;;;;4930903;29;20229;-74
2023/06/18 07:57:54;;;;;;;9.80;8.90;;;;;;;;;;4932257;29;20650;-74
2023/06/18 08:00:20;;;;;;;10.37;9.30;;;;;;;;;;4930508;29;20197;-75
2023/06/18 08:02:47;;;;;;;10.60;9.60;;;;;;;;;;4930881;29;21147;-75
2023/06/18 08:05:13;;;;;;;9.80;8.90;;;;;;;;;;4927741;29;20229;-75
2023/06/18 08:07:40;;;;;;;9.77;8.77;;;;;;;;;;4926226;29;20225;-72
2023/06/18 08:10:06;;;;;;;10.00;9.03;;;;;;;;;;4926577;29;20185;-75
2023/06/18 08:12:32;;;;;;;10.30;9.13;;;;;;;;;;4925793;29;20210;-74
2023/06/18 08:14:58;;;;;;;10.13;8.27;;;;;;;;;;4953510;28;20634;-75
2023/06/18 08:17:24;;;;;;;9.20;8.27;;;;;;;;;;4934856;29;20186;-74
2023/06/18 08:19:50;;;;;;;10.47;9.40;;;;;;;;;;4924902;29;20185;-75
2023/06/18 08:22:17;;;;;;;11.13;8.93;;;;;;;;;;4927687;29;20225;-74
2023/06/18 08:24:44;;;;;;;13.07;8.83;;;;;;;;;;4928022;29;20186;-75
2023/06/18 08:27:12;;;;;;;10.50;9.50;;;;;;;;;;4925728;29;20597;-76
2023/06/18 08:29:38;;;;;;;9.53;8.63;;;;;;;;;;4936614;29;22216;-75
2023/06/18 08:32:05;;;;;;;9.63;8.60;;;;;;;;;;4932892;29;20227;-75
2023/06/18 08:34:36;;;;;;;10.50;9.50;;;;;;;;;;4927949;29;20190;-74
2023/06/18 08:37:03;;;;;;;9.67;8.67;;;;;;;;;;4928051;29;21695;-72
2023/06/18 08:39:29;;;;;;;9.00;8.20;;;;;;;;;;4923770;29;20187;-73
2023/06/18 08:42:00;;;;;;;9.90;9.00;;;;;;;;;;4923191;29;20519;-74
2023/06/18 08:44:30;;;;;;;11.30;9.73;;;;;;;;;;4935327;29;20186;-75
2023/06/18 08:47:00;;;;;;;10.43;8.70;;;;;;;;;;4926982;29;20186;-75
2023/06/18 08:49:30;;;;;;;9.57;8.67;;;;;;;;;;4932487;29;20190;-74
2023/06/18 08:52:06;;;;;;;9.70;8.70;;;;;;;;;;4932771;29;20217;-74
2023/06/18 08:54:33;;;;;;;9.50;8.60;;;;;;;;;;4927039;29;20189;-75
2023/06/18 08:57:03;;;;;;;8.63;7.87;;;;;;;;;;4927879;29;20190;-79
2023/06/18 08:59:31;;;;;;;9.40;8.50;;;;;;;;;;4926974;29;20338;-75
2023/06/18 09:01:57;;;;;;;8.67;7.87;;;;;;;;;;4924830;29;20580;-74
2023/06/18 09:04:24;;;;;;;9.10;7.90;;;;;;;;;;4927685;29;20174;-75
2023/06/18 09:06:50;;;;;;;8.50;7.53;;;;;;;;;;4921590;29;20197;-73
2023/06/18 09:09:19;;;;;;;8.93;7.43;;;;;;;;;;4920353;29;20185;-75
2023/06/18 09:11:45;;;;;;;8.17;7.47;;;;;;;;;;4931248;29;20300;-75
2023/06/18 09:14:11;;;;;;;9.17;8.27;;;;;;;;;;4927545;29;20238;-75
2023/06/18 09:16:37;;;;;;;8.47;7.77;;;;;;;;;;4919324;29;20593;-74
2023/06/18 09:19:04;;;;;;;11.07;8.13;;;;;;;;;;4925376;29;20191;-74
2023/06/18 09:21:38;;;;;;;8.20;7.40;;;;;;;;;;4922775;29;20215;-73
2023/06/18 09:24:07;;;;;;;8.87;7.97;;;;;;;;;;4924841;29;20818;-75
2023/06/18 09:26:34;;;;;;;8.00;7.37;;;;;;;;;;4918633;29;20254;-73
2023/06/18 09:29:07;;;;;;;9.63;8.57;;;;;;;;;;4929953;29;20182;-74
2023/06/18 09:31:35;;;;;;;8.07;7.33;;;;;;;;;;4931053;29;20204;-79
2023/06/18 09:34:12;;;;;;;7.87;7.17;;;;;;;;;;4926900;29;20840;-76
2023/06/18 09:36:39;;;;;;;8.87;7.97;;;;;;;;;;4917142;29;20193;-76
2023/06/18 09:39:13;;;;;;;8.20;7.50;;;;;;;;;;4929603;29;20269;-74
2023/06/18 09:41:40;;;;;;;9.30;8.40;;;;;;;;;;4928874;29;20212;-74
2023/06/18 09:44:08;;;;;;;9.30;8.40;;;;;;;;;;4928965;29;20630;-74
2023/06/18 09:46:34;;;;;;;8.90;8.10;;;;;;;;;;4928546;29;20195;-74
2023/06/18 09:49:01;;;;;;;8.80;8.00;;;;;;;;;;4929992;29;20185;-74
2023/06/18 09:51:27;;;;;;;9.23;8.43;;;;;;;;;;4924505;29;20194;-74
2023/06/18 09:53:58;;;;;;;8.43;7.40;;;;;;;;;;4928498;29;20194;-74
2023/06/18 09:56:25;;;;;;;8.83;7.40;;;;;;;;;;4929579;29;20655;-75
2023/06/18 09:58:51;;;;;;;7.77;6.90;;;;;;;;;;4932523;29;20275;-75
2023/06/18 10:01:18;;;;;;;9.10;8.30;;;;;;;;;;4931540;29;20218;-75
2023/06/18 10:03:45;;;;;;;10.03;7.80;;;;;;;;;;4931195;29;20209;-75
2023/06/18 10:06:15;;;;;;;8.83;7.93;;;;;;;;;;4929619;29;20645;-74
2023/06/18 10:08:42;;;;;;;7.70;7.00;;;;;;;;;;4931934;29;20253;-75
2023/06/18 10:11:10;;;;;;;8.60;7.33;;;;;;;;;;4927424;29;20194;-75
2023/06/18 10:13:39;;;;;;;8.40;7.33;;;;;;;;;;4930975;29;20675;-74
2023/06/18 10:16:06;;;;;;;7.83;7.10;;;;;;;;;;4933964;29;20284;-75
2023/06/18 10:18:32;;;;;;;8.03;7.30;;;;;;;;;;4934165;29;20587;-75
2023/06/18 10:21:04;;;;;;;8.20;7.50;;;;;;;;;;4935768;29;20197;-75
2023/06/18 10:23:31;;;;;;;7.10;6.50;;;;;;;;;;4931411;29;20761;-73
2023/06/18 10:25:58;;;;;;;8.20;7.50;;;;;;;;;;4933987;29;20190;-75
2023/06/18 10:28:25;;;;;;;7.43;6.83;;;;;;;;;;4931859;29;20182;-74
2023/06/18 10:30:51;;;;;;;7.57;6.87;;;;;;;;;;4936408;29;20193;-76
2023/06/18 10:33:17;;;;;;;7.17;6.53;;;;;;;;;;4935062;29;20209;-74
2023/06/18 10:35:44;;;;;;;6.80;6.00;;;;;;;;;;4930868;29;20185;-77
2023/06/18 10:38:10;;;;;;;8.10;7.40;;;;;;;;;;4932531;29;20249;-77
2023/06/18 10:40:39;;;;;;;8.37;7.47;;;;;;;;;;4931035;29;20182;-74
2023/06/18 10:43:07;;;;;;;7.17;6.60;;;;;;;;;;4923908;29;20716;-75
2023/06/18 10:45:33;;;;;;;7.20;6.50;;;;;;;;;;4926639;29;20233;-77
2023/06/18 10:48:15;;;;;;;7.07;6.47;;;;;;;;;;4928017;29;20214;-76
2023/06/18 10:51:02;;;;;;;7.80;7.10;;;;;;;;;;4923847;29;20725;-78
2023/06/18 10:53:28;;;;;;;7.30;6.70;;;;;;;;;;4924970;29;20256;-78
2023/06/18 10:55:57;;;;;;;7.23;6.63;;;;;;;;;;4924377;29;20199;-78
2023/06/18 10:58:33;;;;;;;8.17;6.27;;;;;;;;;;4927849;29;20340;-78
2023/06/18 11:01:00;;;;;;;6.80;6.00;;;;;;;;;;4930071;29;20203;-78
2023/06/18 11:03:36;;;;;;;5.90;5.40;;;;;;;;;;4909132;29;20234;-76
2023/06/18 11:06:04;;;;;;;6.77;6.17;;;;;;;;;;4912836;29;20642;-83
2023/06/18 11:08:32;;;;;;;8.60;6.40;;;;;;;;;;4914476;29;20236;-78
2023/06/18 11:11:09;;;;;;;6.50;5.97;;;;;;;;;;4922051;29;20277;-77
2023/06/18 11:13:37;;;;;;;7.47;6.77;;;;;;;;;;4932661;29;20299;-77
2023/06/18 11:16:06;;;;;;;7.33;6.33;;;;;;;;;;4928446;29;20254;-77
2023/06/18 11:18:33;;;;;;;7.37;6.53;;;;;;;;;;4932935;29;20190;-77
2023/06/18 11:21:02;;;;;;;6.93;6.33;;;;;;;;;;4929743;29;20280;-77
2023/06/18 11:23:29;;;;;;;7.27;6.50;;;;;;;;;;4928911;29;21607;-77
2023/06/18 11:25:55;;;;;;;6.70;6.10;;;;;;;;;;4930608;29;20195;-77
2023/06/18 11:28:24;;;;;;;6.80;6.10;;;;;;;;;;4932699;29;20190;-77
2023/06/18 11:30:55;;;;;;;6.10;5.57;;;;;;;;;;4931517;29;20196;-76
2023/06/18 11:33:22;;;;;;;6.57;6.03;;;;;;;;;;4926604;29;20297;-76
2023/06/18 11:35:49;;;;;;;9.33;8.43;;;;;;;;;;4926188;29;20222;-76
2023/06/18 11:38:16;;;;;;;9.77;8.87;;;;;;;;;;4935179;29;20182;-77
2023/06/18 11:40:50;;;;;;;7.30;6.60;;;;;;;;;;4934704;29;20191;-76
2023/06/18 11:43:16;;;;;;;6.70;6.10;;;;;;;;;;4935377;29;20286;-76
2023/06/18 11:45:46;;;;;;;9.87;6.57;;;;;;;;;;4937224;29;20187;-76
2023/06/18 11:48:12;;;;;;;6.60;6.00;;;;;;;;;;4925157;29;20229;-76
2023/06/18 11:50:38;;;;;;;7.13;6.53;;;;;;;;;;4936430;29;20187;-76
2023/06/18 11:53:05;;;;;;;6.83;6.23;;;;;;;;;;4934693;29;20207;-76
2023/06/18 11:55:33;;;;;;;6.40;5.80;;;;;;;;;;4943472;29;20628;-77
2023/06/18 11:58:01;;;;;;;5.97;5.47;;;;;;;;;;4934976;29;20193;-79
2023/06/18 12:00:27;;;;;;;6.20;5.60;;;;;;;;;;4929499;29;20768;-78
2023/06/18 12:02:53;;;;;;;6.03;5.53;;;;;;;;;;4928471;29;20217;-78
2023/06/18 12:05:20;;;;;;;6.50;5.90;;;;;;;;;;4928470;29;20249;-78
2023/06/18 12:07:46;;;;;;;5.70;5.00;;;;;;;;;;4934540;29;20272;-78
2023/06/18 12:10:13;;;;;;;6.73;6.13;;;;;;;;;;4950452;29;20326;-78
2023/06/18 12:12:46;;;;;;;6.07;5.53;;;;;;;;;;4915652;29;20742;-76
2023/06/18 12:15:12;;;;;;;6.43;5.83;;;;;;;;;;4922741;29;20200;-77
2023/06/18 12:17:41;;;;;;;8.13;5.90;;;;;;;;;;4933410;29;20664;-80
2023/06/18 12:20:10;;;;;;;6.27;5.67;;;;;;;;;;4950431;29;20203;-77
2023/06/18 12:22:37;;;;;;;5.87;5.37;;;;;;;;;;4931001;28;20224;-77
2023/06/18 12:25:04;;;;;;;5.90;5.40;;;;;;;;;;4934208;29;20549;-77
2023/06/18 12:27:31;;;;;;;5.47;5.07;;;;;;;;;;4939307;29;20209;-75
2023/06/18 12:30:02;;;;;;;6.53;5.93;;;;;;;;;;4928048;29;20205;-83
2023/06/18 12:32:28;;;;;;;6.03;5.47;;;;;;;;;;4935470;29;20214;-80
2023/06/18 12:34:55;;;;;;;5.50;5.03;;;;;;;;;;4934599;29;20185;-81
2023/06/18 12:37:31;;;;;;;6.50;5.90;;;;;;;;;;4940663;29;20183;-80
2023/06/18 12:40:06;;;;;;;6.60;6.00;;;;;;;;;;4934934;29;20178;-79
2023/06/18 12:42:33;;;;;;;6.33;5.93;;;;;;;;;;4925908;29;20234;-77
2023/06/18 12:44:59;;;;;;;5.83;5.10;;;;;;;;;;4928785;29;20189;-78
2023/06/18 12:47:25;;;;;;;6.13;5.53;;;;;;;;;;4925594;29;20594;-78
2023/06/18 12:49:52;;;;;;;6.20;5.70;;;;;;;;;;4922559;29;20192;-78
2023/06/18 12:52:19;;;;;;;6.80;6.20;;;;;;;;;;4926510;29;20224;-77
2023/06/18 12:54:46;;;;;;;5.67;5.23;;;;;;;;;;4926501;29;20192;-77
2023/06/18 12:57:15;;;;;;;6.30;5.73;;;;;;;;;;4925216;29;20197;-78
2023/06/18 12:59:49;;;;;;;6.10;5.50;;;;;;;;;;4925455;29;20218;-78
2023/06/18 13:02:16;;;;;;;5.30;4.90;;;;;;;;;;4923254;29;20306;-77
2023/06/18 13:04:43;;;;;;;5.60;5.10;;;;;;;;;;4926837;29;20186;-77
2023/06/18 13:07:10;;;;;;;5.27;4.83;;;;;;;;;;4924613;29;20200;-78
2023/06/18 13:09:36;;;;;;;5.40;4.95;;;;;;;;;;4920083;29;20256;-79
2023/06/18 13:12:02;;;;;;;5.22;4.82;;;;;;;;;;4911515;29;20223;-80
2023/06/18 13:14:28;;;;;;;4.45;4.15;;;;;;;;;;4929097;29;20201;-84
2023/06/18 13:17:00;;;;;;;5.60;4.88;;;;;;;;;;4929185;29;20198;-83
2023/06/18 13:19:27;;;;;;;4.78;4.30;;;;;;;;;;4928250;29;20205;-78
2023/06/18 13:21:53;;;;;;;5.30;4.90;;;;;;;;;;4929780;29;20713;-80
2023/06/18 13:24:19;;;;;;;5.07;4.68;;;;;;;;;;4931482;29;20706;-81
2023/06/18 13:26:45;;;;;;;5.65;5.25;;;;;;;;;;4932868;29;20174;-80
2023/06/18 13:29:12;;;;;;;5.18;4.78;;;;;;;;;;4934356;29;20187;-81
2023/06/18 13:31:39;;;;;;;4.93;4.53;;;;;;;;;;4933740;29;20197;-81
2023/06/18 13:34:05;;;;;;;5.25;4.75;;;;;;;;;;4933649;29;20193;-83
2023/06/18 13:36:31;;;;;;;5.18;4.78;;;;;;;;;;4933421;29;20237;-81
2023/06/18 13:38:57;;;;;;;6.07;5.57;;;;;;;;;;4917368;29;20673;-81
2023/06/18 13:41:23;;;;;;;4.97;4.47;;;;;;;;;;4931570;29;20219;-81
2023/06/18 13:43:49;;;;;;;6.03;5.45;;;;;;;;;;4930953;29;20672;-80
2023/06/18 13:46:16;;;;;;;5.43;5.03;;;;;;;;;;4934452;29;20188;-81
2023/06/18 13:48:42;;;;;;;5.80;5.40;;;;;;;;;;4934710;29;20265;-80
2023/06/18 13:51:08;;;;;;;5.47;4.93;;;;;;;;;;4932913;29;20194;-80
2023/06/18 13:53:34;;;;;;;6.90;6.40;;;;;;;;;;4924581;29;20549;-81
2023/06/18 13:56:02;;;;;;;7.40;6.80;;;;;;;;;;4944689;29;20216;-80
2023/06/18 13:58:29;;;;;;;6.30;5.80;;;;;;;;;;4935004;29;20213;-83
2023/06/18 14:00:56;;;;;;;5.45;5.05;;;;;;;;;;4927256;29;20190;-81
2023/06/18 14:03:23;;;;;;;5.55;5.05;;;;;;;;;;4928556;29;20582;-81
2023/06/18 14:05:49;;;;;;;5.80;5.25;;;;;;;;;;4927277;29;20178;-81
2023/06/18 14:08:16;;;;;;;6.00;5.40;;;;;;;;;;4929434;29;20200;-82
2023/06/18 14:10:42;;;;;;;5.53;5.13;;;;;;;;;;4929365;29;20180;-82
2023/06/18 14:13:08;;;;;;;5.78;5.18;;;;;;;;;;4930150;29;20217;-81
2023/06/18 14:15:34;;;;;;;5.00;4.70;;;;;;;;;;4927893;29;20219;-82
2023/06/18 14:18:00;;;;;;;6.80;6.30;;;;;;;;;;4927824;29;20189;-81
2023/06/18 14:20:26;;;;;;;6.25;5.75;;;;;;;;;;4932056;29;20267;-84
2023/06/18 14:22:54;;;;;;;6.55;6.03;;;;;;;;;;4929212;29;20218;-81
2023/06/18 14:25:20;;;;;;;7.10;5.65;;;;;;;;;;4930625;29;20268;-81
2023/06/18 14:27:48;;;;;;;5.93;5.53;;;;;;;;;;4930524;29;20198;-80
2023/06/18 14:30:15;;;;;;;6.78;6.18;;;;;;;;;;4927628;29;20612;-81
2023/06/18 14:32:41;;;;;;;5.22;4.72;;;;;;;;;;4926241;29;20591;-81
2023/06/18 14:35:08;;;;;;;5.93;5.53;;;;;;;;;;4927174;29;20190;-86
2023/06/18 14:37:35;;;;;;;5.25;4.85;;;;;;;;;;4927784;29;20195;-83
2023/06/18 14:40:01;;;;;;;7.03;6.53;;;;;;;;;;4928365;29;20183;-83
2023/06/18 14:42:27;;;;;;;6.28;5.75;;;;;;;;;;4929776;29;20607;-83